createdAt,value
2019-05-22T00:01:22.670Z,9.87
2019-05-22T00:03:33.015Z,9.17
2019-05-22T00:05:42.246Z,11.90
2019-05-22T00:07:51.566Z,9.03
2019-05-22T00:09:59.234Z,11.60
2019-05-22T00:12:10.164Z,8.60
2019-05-22T00:14:28.961Z,13.60
2019-05-22T00:16:45.642Z,7.63
2019-05-22T00:18:53.039Z,8.57
2019-05-22T00:21:01.107Z,12.27
2019-05-22T00:23:10.074Z,12.97
2019-05-22T00:25:21.307Z,10.40
2019-05-22T00:27:29.104Z,9.50
2019-05-22T00:29:36.107Z,10.50
2019-05-22T00:31:44.359Z,13.43
2019-05-22T00:33:52.180Z,10.00
2019-05-22T00:36:01.086Z,14.00
2019-05-22T00:38:10.288Z,10.27
2019-05-22T00:40:18.637Z,9.43
2019-05-22T00:42:28.180Z,9.93
2019-05-22T00:44:35.407Z,13.77
2019-05-22T00:46:43.696Z,9.57
2019-05-22T00:48:52.606Z,8.33
2019-05-22T00:51:02.936Z,10.60
2019-05-22T00:53:33.051Z,9.13
2019-05-22T00:55:44.195Z,12.20
2019-05-22T00:57:57.678Z,9.67
2019-05-22T01:00:20.873Z,13.97
2019-05-22T01:02:29.824Z,14.97
2019-05-22T01:04:39.711Z,12.73
2019-05-22T01:06:48.788Z,12.83
2019-05-22T01:08:57.456Z,15.53
2019-05-22T01:11:05.663Z,12.17
2019-05-22T01:13:14.258Z,11.77
2019-05-22T01:15:26.751Z,11.27
2019-05-22T01:17:38.744Z,12.23
2019-05-22T01:19:49.905Z,12.47
2019-05-22T01:22:02.305Z,12.37
2019-05-22T01:24:12.281Z,10.50
2019-05-22T01:26:20.804Z,11.10
2019-05-22T01:28:28.223Z,9.43
2019-05-22T01:30:40.790Z,10.20
2019-05-22T01:32:52.598Z,13.27
2019-05-22T01:35:00.810Z,9.47
2019-05-22T01:37:10.664Z,9.97
2019-05-22T01:39:32.154Z,14.53
2019-05-22T01:41:42.441Z,12.47
2019-05-22T01:43:51.955Z,10.67
2019-05-22T01:46:03.423Z,11.97
2019-05-22T01:48:19.404Z,10.17
2019-05-22T01:50:41.450Z,13.77
2019-05-22T01:52:49.698Z,14.80
2019-05-22T01:54:58.579Z,10.40
2019-05-22T01:57:06.781Z,13.67
2019-05-22T01:59:14.005Z,10.90
2019-05-22T02:01:22.808Z,15.67
2019-05-22T02:03:31.604Z,11.00
2019-05-22T02:05:38.601Z,12.07
2019-05-22T02:07:47.205Z,11.27
2019-05-22T02:09:55.102Z,15.13
2019-05-22T02:12:26.041Z,17.57
2019-05-22T02:14:34.744Z,13.33
2019-05-22T02:16:56.338Z,13.97
2019-05-22T02:18:54.589Z,12.17
2019-05-22T02:21:05.078Z,12.97
2019-05-22T02:23:13.013Z,17.23
2019-05-22T02:25:20.835Z,9.10
2019-05-22T02:27:28.421Z,14.33
2019-05-22T02:29:36.273Z,9.90
2019-05-22T02:31:44.182Z,13.90
2019-05-22T02:34:12.446Z,13.13
2019-05-22T02:36:20.052Z,14.83
2019-05-22T02:38:27.353Z,11.87
2019-05-22T02:40:38.076Z,10.60
2019-05-22T02:42:44.741Z,11.67
2019-05-22T02:44:54.596Z,12.00
2019-05-22T02:47:18.056Z,12.37
2019-05-22T02:49:14.691Z,9.63
2019-05-22T02:51:22.392Z,9.90
2019-05-22T02:53:30.055Z,13.13
2019-05-22T02:55:38.573Z,14.47
2019-05-22T02:57:45.957Z,11.30
2019-05-22T02:59:52.655Z,10.77
2019-05-22T03:02:04.399Z,11.63
2019-05-22T03:04:14.815Z,10.63
2019-05-22T03:06:22.729Z,10.50
2019-05-22T03:09:00.224Z,9.77
2019-05-22T03:11:09.037Z,16.67
2019-05-22T03:13:16.611Z,10.97
2019-05-22T03:15:24.853Z,11.77
2019-05-22T03:17:34.364Z,11.33
2019-05-22T03:19:47.875Z,11.47
2019-05-22T03:21:55.631Z,11.77
2019-05-22T03:24:04.389Z,11.27
2019-05-22T03:26:11.813Z,12.57
2019-05-22T03:28:19.690Z,12.20
2019-05-22T03:30:37.223Z,10.83
2019-05-22T03:32:45.486Z,15.20
2019-05-22T03:34:54.057Z,10.03
2019-05-22T03:37:01.016Z,16.57
2019-05-22T03:39:09.636Z,9.50
2019-05-22T03:41:18.654Z,11.93
2019-05-22T03:43:28.521Z,14.73
2019-05-22T03:45:36.714Z,17.60
2019-05-22T03:47:44.443Z,14.17
2019-05-22T03:49:56.223Z,11.03
2019-05-22T03:52:04.348Z,16.80
2019-05-22T03:54:11.939Z,12.27
2019-05-22T03:56:20.878Z,10.10
2019-05-22T03:58:27.995Z,13.80
2019-05-22T04:00:36.773Z,11.93
2019-05-22T04:02:46.450Z,14.63
2019-05-22T04:04:54.692Z,12.50
2019-05-22T04:07:05.958Z,10.20
2019-05-22T04:09:23.259Z,8.70
2019-05-22T04:11:34.114Z,10.17
2019-05-22T04:13:41.211Z,10.03
2019-05-22T04:15:48.018Z,8.17
2019-05-22T04:17:55.457Z,7.47
2019-05-22T04:20:03.734Z,7.77
2019-05-22T04:22:11.461Z,8.30
2019-05-22T04:24:21.118Z,6.90
2019-05-22T04:26:28.775Z,9.13
2019-05-22T04:28:39.712Z,8.00
2019-05-22T04:30:47.174Z,10.18
2019-05-22T04:32:54.249Z,10.98
2019-05-22T04:35:01.712Z,10.18
2019-05-22T04:37:11.056Z,10.08
2019-05-22T04:39:27.257Z,9.85
2019-05-22T04:41:35.250Z,7.60
2019-05-22T04:43:42.035Z,7.85
2019-05-22T04:45:49.446Z,10.35
2019-05-22T04:48:03.205Z,9.88
2019-05-22T04:50:13.611Z,10.18
2019-05-22T04:52:20.124Z,8.03
2019-05-22T04:54:27.509Z,6.72
2019-05-22T04:56:34.225Z,9.65
2019-05-22T04:58:41.373Z,8.00
2019-05-22T05:00:49.173Z,6.62
2019-05-22T05:02:57.411Z,7.78
2019-05-22T05:05:06.341Z,9.93
2019-05-22T05:07:13.649Z,7.22
2019-05-22T05:09:22.550Z,8.68
2019-05-22T05:11:29.430Z,5.90
2019-05-22T05:13:35.880Z,8.48
2019-05-22T05:15:42.927Z,8.25
2019-05-22T05:17:49.830Z,5.97
2019-05-22T05:19:56.299Z,7.17
2019-05-22T05:22:03.381Z,10.32
2019-05-22T05:24:10.140Z,8.47
2019-05-22T05:26:17.776Z,8.03
2019-05-22T05:28:24.720Z,9.23
2019-05-22T05:30:32.169Z,6.50
2019-05-22T05:32:39.949Z,8.73
2019-05-22T05:34:50.901Z,11.17
2019-05-22T05:37:01.799Z,7.17
2019-05-22T05:39:38.150Z,7.40
2019-05-22T05:41:44.863Z,6.97
2019-05-22T05:43:51.660Z,9.53
2019-05-22T05:46:00.639Z,9.60
2019-05-22T05:48:11.603Z,7.83
2019-05-22T05:50:20.529Z,6.60
2019-05-22T05:52:29.894Z,5.33
2019-05-22T05:54:38.187Z,7.90
2019-05-22T05:56:49.202Z,6.23
2019-05-22T05:58:57.875Z,10.07
2019-05-22T06:01:10.208Z,6.93
2019-05-22T06:03:41.011Z,7.67
2019-05-22T06:05:48.316Z,5.87
2019-05-22T06:07:55.292Z,5.53
2019-05-22T06:10:29.878Z,4.23
2019-05-22T06:12:38.233Z,6.57
2019-05-22T06:14:47.257Z,7.00
2019-05-22T06:17:08.569Z,6.90
2019-05-22T06:19:16.804Z,7.30
2019-05-22T06:21:23.781Z,5.60
2019-05-22T06:23:35.776Z,9.37
2019-05-22T06:25:43.039Z,7.93
2019-05-22T06:27:52.955Z,8.50
2019-05-22T06:30:07.225Z,7.00
2019-05-22T06:33:04.095Z,4.37
2019-05-22T06:35:12.290Z,6.67
2019-05-22T06:37:50.419Z,4.43
2019-05-22T06:39:58.082Z,6.33
2019-05-22T06:42:06.589Z,8.10
2019-05-22T06:44:36.094Z,3.90
2019-05-22T06:46:48.520Z,7.67
2019-05-22T06:48:59.599Z,6.83
2019-05-22T06:51:18.992Z,5.07
2019-05-22T06:53:20.127Z,5.20
2019-05-22T06:55:26.797Z,5.10
2019-05-22T06:57:34.990Z,4.77
2019-05-22T06:59:42.362Z,5.80
2019-05-22T07:01:50.746Z,4.70
2019-05-22T07:03:57.288Z,6.37
2019-05-22T07:06:04.781Z,5.43
2019-05-22T07:08:12.980Z,3.77
2019-05-22T07:10:21.401Z,3.03
2019-05-22T07:12:29.989Z,6.90
2019-05-22T07:14:39.959Z,4.27
2019-05-22T07:16:50.105Z,4.17
2019-05-22T07:18:56.830Z,17.90
2019-05-22T07:21:05.190Z,7.43
2019-05-22T07:23:26.243Z,3.57
2019-05-22T07:25:51.060Z,14.23
2019-05-22T07:28:10.549Z,4.77
2019-05-22T07:30:18.276Z,4.97
2019-05-22T07:32:25.420Z,4.10
2019-05-22T07:34:32.415Z,3.00
2019-05-22T07:36:40.577Z,2.53
2019-05-22T07:38:49.176Z,7.43
2019-05-22T07:40:56.279Z,4.33
2019-05-22T07:43:03.551Z,2.50
2019-05-22T07:45:12.100Z,3.40
2019-05-22T07:47:24.023Z,7.17
2019-05-22T07:49:32.965Z,5.83
2019-05-22T07:51:53.322Z,3.77
2019-05-22T07:53:50.049Z,4.20
2019-05-22T07:55:58.799Z,6.53
2019-05-22T07:58:17.398Z,3.07
2019-05-22T08:00:24.128Z,4.00
2019-05-22T08:02:41.551Z,4.30
2019-05-22T08:04:50.212Z,4.80
2019-05-22T08:06:57.129Z,6.23
2019-05-22T08:09:08.253Z,3.40
2019-05-22T08:11:16.316Z,3.23
2019-05-22T08:13:24.436Z,3.27
2019-05-22T08:15:33.454Z,3.43
2019-05-22T08:17:41.786Z,3.27
2019-05-22T08:19:48.656Z,3.07
2019-05-22T08:22:06.991Z,6.80
2019-05-22T08:24:09.684Z,3.07
2019-05-22T08:26:17.112Z,3.63
2019-05-22T08:28:25.779Z,5.97
2019-05-22T08:30:33.402Z,3.63
2019-05-22T08:32:41.840Z,3.07
2019-05-22T08:44:14.784Z,2.73
2019-05-22T08:46:03.213Z,5.47
2019-05-22T08:48:10.559Z,3.00
2019-05-22T08:50:19.628Z,2.50
2019-05-22T08:52:26.915Z,3.63
2019-05-22T08:54:36.538Z,3.90
2019-05-22T08:56:48.961Z,2.70
2019-05-22T08:58:56.780Z,2.87
2019-05-22T09:01:04.011Z,2.23
2019-05-22T09:03:12.043Z,3.17
2019-05-22T09:05:21.577Z,2.23
2019-05-22T09:07:27.570Z,5.33
2019-05-22T09:09:33.815Z,2.20
2019-05-22T09:11:40.528Z,5.57
2019-05-22T09:13:46.858Z,2.37
2019-05-22T09:15:54.214Z,2.90
2019-05-22T09:18:01.155Z,2.23
2019-05-22T09:20:09.955Z,1.73
2019-05-22T09:22:18.310Z,3.10
2019-05-22T09:24:26.633Z,1.90
2019-05-22T09:26:34.191Z,2.40
2019-05-22T09:28:40.474Z,6.03
2019-05-22T09:30:47.158Z,2.30
2019-05-22T09:32:54.750Z,1.90
2019-05-22T09:35:01.003Z,3.17
2019-05-22T09:37:08.085Z,2.37
2019-05-22T09:39:15.880Z,3.57
2019-05-22T09:41:22.544Z,2.60
2019-05-22T09:43:29.123Z,3.40
2019-05-22T09:45:37.104Z,2.20
2019-05-22T09:47:43.371Z,3.90
2019-05-22T09:49:51.171Z,2.57
2019-05-22T09:51:58.677Z,1.83
2019-05-22T09:54:05.845Z,1.90
2019-05-22T09:56:13.758Z,4.07
2019-05-22T09:58:20.408Z,7.13
2019-05-22T10:00:27.710Z,2.60
2019-05-22T10:02:34.794Z,2.13
2019-05-22T10:04:41.567Z,2.87
2019-05-22T10:06:48.139Z,3.70
2019-05-22T10:08:54.607Z,3.13
2019-05-22T10:11:01.259Z,5.87
2019-05-22T10:13:07.939Z,2.87
2019-05-22T10:15:15.543Z,3.00
2019-05-22T10:17:22.287Z,2.10
2019-05-22T10:19:29.886Z,2.70
2019-05-22T10:21:37.688Z,2.97
2019-05-22T10:23:46.119Z,4.60
2019-05-22T10:25:53.289Z,5.07
2019-05-22T10:27:59.736Z,2.60
2019-05-22T10:30:16.873Z,1.77
2019-05-22T10:32:23.320Z,2.33
2019-05-22T10:34:29.794Z,2.27
2019-05-22T10:36:36.844Z,1.37
2019-05-22T10:38:44.311Z,1.70
2019-05-22T10:40:51.844Z,1.20
2019-05-22T10:42:58.906Z,1.40
2019-05-22T10:45:07.145Z,4.27
2019-05-22T10:47:18.237Z,2.27
2019-05-22T10:49:22.927Z,1.93
2019-05-22T10:51:29.992Z,5.23
2019-05-22T10:53:37.589Z,2.00
2019-05-22T10:55:44.253Z,4.20
2019-05-22T10:57:51.000Z,1.63
2019-05-22T10:59:57.294Z,2.03
2019-05-22T11:02:04.482Z,1.23
2019-05-22T11:04:11.970Z,4.53
2019-05-22T11:06:19.573Z,1.70
2019-05-22T11:08:32.007Z,1.40
2019-05-22T11:10:35.359Z,1.47
2019-05-22T11:12:41.825Z,1.83
2019-05-22T11:14:49.018Z,5.60
2019-05-22T11:17:01.410Z,1.70
2019-05-22T11:19:07.459Z,1.95
2019-05-22T11:21:14.049Z,1.40
2019-05-22T11:23:20.502Z,1.40
2019-05-22T11:25:27.678Z,2.73
2019-05-22T11:27:34.249Z,3.30
2019-05-22T11:29:41.359Z,2.23
2019-05-22T11:31:48.732Z,1.90
2019-05-22T11:33:55.079Z,2.40
2019-05-22T11:36:03.884Z,1.40
2019-05-22T11:38:11.380Z,2.30
2019-05-22T11:40:20.913Z,1.50
2019-05-22T11:42:27.391Z,1.57
2019-05-22T11:44:33.843Z,1.02
2019-05-22T11:46:41.242Z,2.95
2019-05-22T11:48:47.590Z,1.73
2019-05-22T11:50:54.872Z,2.62
2019-05-22T11:53:01.345Z,4.00
2019-05-22T11:55:09.586Z,1.45
2019-05-22T11:57:17.042Z,1.95
2019-05-22T11:59:25.062Z,10.10
2019-05-22T12:01:32.002Z,2.23
2019-05-22T12:03:38.574Z,1.98
2019-05-22T12:05:45.666Z,2.30
2019-05-22T12:07:52.899Z,3.05
2019-05-22T12:10:00.575Z,1.62
2019-05-22T12:12:07.239Z,2.22
2019-05-22T12:14:14.412Z,2.65
2019-05-22T12:16:22.110Z,4.13
2019-05-22T12:18:29.261Z,1.62
2019-05-22T12:20:36.197Z,5.33
2019-05-22T12:22:44.177Z,3.30
2019-05-22T12:24:51.394Z,1.70
2019-05-22T12:26:58.922Z,2.77
2019-05-22T12:29:06.025Z,1.90
2019-05-22T12:31:13.979Z,2.73
2019-05-22T12:33:21.182Z,2.02
2019-05-22T12:35:28.812Z,1.60
2019-05-22T12:37:36.376Z,2.30
2019-05-22T12:40:02.560Z,3.35
2019-05-22T12:42:11.202Z,2.72
2019-05-22T12:44:17.999Z,4.00
2019-05-22T12:46:25.452Z,2.02
2019-05-22T12:48:32.350Z,1.22
2019-05-22T12:50:39.934Z,1.50
2019-05-22T12:52:50.973Z,2.50
2019-05-22T12:54:58.710Z,2.52
2019-05-22T12:57:08.760Z,2.97
2019-05-22T12:59:17.281Z,2.58
2019-05-22T13:01:25.388Z,1.27
2019-05-22T13:03:35.438Z,1.35
2019-05-22T13:05:41.876Z,5.33
2019-05-22T13:07:49.445Z,1.50
2019-05-22T13:09:56.053Z,2.62
2019-05-22T13:12:06.064Z,3.55
2019-05-22T13:14:13.898Z,2.95
2019-05-22T13:16:20.983Z,5.65
2019-05-22T13:18:29.588Z,2.05
2019-05-22T13:20:43.235Z,2.40
2019-05-22T13:22:50.521Z,2.20
2019-05-22T13:24:57.953Z,2.50
2019-05-22T13:27:07.750Z,1.40
2019-05-22T13:29:16.694Z,3.77
2019-05-22T13:31:29.987Z,3.62
2019-05-22T13:33:39.317Z,2.00
2019-05-22T13:35:46.499Z,1.85
2019-05-22T13:37:53.413Z,1.60
2019-05-22T13:40:00.353Z,2.55
2019-05-22T13:42:07.377Z,5.47
2019-05-22T13:44:14.877Z,1.95
2019-05-22T13:46:21.410Z,6.47
2019-05-22T13:48:28.672Z,2.98
2019-05-22T13:50:35.992Z,4.40
2019-05-22T13:52:43.787Z,2.37
2019-05-22T13:54:51.575Z,4.20
2019-05-22T13:56:59.199Z,1.93
2019-05-22T13:59:07.062Z,2.02
2019-05-22T14:01:13.928Z,2.45
2019-05-22T14:03:22.354Z,3.42
2019-05-22T14:05:31.332Z,3.10
2019-05-22T14:07:38.392Z,1.10
2019-05-22T14:09:45.925Z,3.08
2019-05-22T14:11:54.311Z,3.65
2019-05-22T14:14:02.237Z,1.37
2019-05-22T14:16:09.189Z,2.08
2019-05-22T14:18:16.279Z,2.17
2019-05-22T14:20:24.406Z,2.80
2019-05-22T14:22:31.186Z,2.55
2019-05-22T14:24:39.278Z,3.40
2019-05-22T14:26:45.829Z,4.43
2019-05-22T14:28:53.230Z,2.60
2019-05-22T14:31:00.400Z,2.62
2019-05-22T14:33:07.276Z,1.40
2019-05-22T14:35:15.990Z,4.67
2019-05-22T14:37:22.959Z,4.50
2019-05-22T14:39:30.720Z,2.62
2019-05-22T14:41:39.312Z,2.22
2019-05-22T14:43:45.857Z,2.35
2019-05-22T14:45:52.542Z,1.80
2019-05-22T14:47:59.239Z,1.57
2019-05-22T14:50:08.839Z,1.42
2019-05-22T14:52:16.151Z,1.98
2019-05-22T14:54:24.673Z,2.70
2019-05-22T14:56:32.019Z,3.53
2019-05-22T14:58:39.815Z,3.12
2019-05-22T15:00:48.436Z,8.40
2019-05-22T15:02:57.700Z,4.33
2019-05-22T15:05:05.817Z,1.97
2019-05-22T15:07:12.860Z,3.47
2019-05-22T15:09:19.743Z,2.90
2019-05-22T15:11:26.627Z,3.13
2019-05-22T15:13:33.703Z,3.40
2019-05-22T15:15:41.028Z,4.23
2019-05-22T15:17:47.827Z,2.40
2019-05-22T15:19:55.642Z,3.77
2019-05-22T15:22:02.341Z,2.83
2019-05-22T15:24:10.136Z,3.53
2019-05-22T15:26:37.239Z,4.33
2019-05-22T15:28:43.649Z,3.27
2019-05-22T15:30:50.578Z,4.22
2019-05-22T15:32:57.674Z,2.15
2019-05-22T15:35:05.242Z,2.47
2019-05-22T15:37:14.196Z,3.77
2019-05-22T15:39:25.729Z,2.25
2019-05-22T15:41:34.277Z,3.40
2019-05-22T15:43:44.814Z,7.45
2019-05-22T15:45:52.120Z,2.77
2019-05-22T15:48:07.064Z,5.25
2019-05-22T15:50:16.231Z,8.20
2019-05-22T15:52:27.892Z,2.92
2019-05-22T15:54:37.157Z,4.50
2019-05-22T15:56:44.714Z,4.53
2019-05-22T15:58:55.380Z,4.20
2019-05-22T16:01:03.178Z,4.12
2019-05-22T16:03:24.763Z,2.77
2019-05-22T16:05:32.584Z,11.97
2019-05-22T16:07:42.417Z,10.53
2019-05-22T16:09:50.337Z,80.15
2019-05-22T16:11:57.128Z,15.80
2019-05-22T16:14:05.742Z,4.90
2019-05-22T16:16:17.043Z,4.35
2019-05-22T16:18:33.508Z,5.58
2019-05-22T16:20:40.493Z,5.95
2019-05-22T16:22:47.358Z,4.83
2019-05-22T16:24:53.889Z,6.67
2019-05-22T16:27:01.339Z,4.62
2019-05-22T16:29:08.801Z,3.87
2019-05-22T16:31:17.747Z,2.92
2019-05-22T16:33:26.569Z,5.33
2019-05-22T16:35:33.314Z,3.42
2019-05-22T16:37:40.340Z,3.98
2019-05-22T16:39:50.290Z,10.20
2019-05-22T16:41:56.463Z,6.87
2019-05-22T16:44:04.229Z,4.80
2019-05-22T16:46:11.069Z,4.67
2019-05-22T16:48:28.641Z,5.47
2019-05-22T16:50:28.460Z,5.12
2019-05-22T16:52:37.343Z,4.87
2019-05-22T16:54:45.362Z,3.98
2019-05-22T16:56:53.149Z,4.45
2019-05-22T16:59:02.879Z,3.58
2019-05-22T17:01:11.142Z,7.03
2019-05-22T17:03:18.995Z,3.70
2019-05-22T17:05:25.473Z,1.77
2019-05-22T17:07:33.253Z,5.10
2019-05-22T17:09:42.683Z,3.70
2019-05-22T17:11:55.389Z,2.87
2019-05-22T17:14:06.919Z,5.05
2019-05-22T17:16:15.705Z,2.63
2019-05-22T17:18:22.461Z,3.00
2019-05-22T17:20:32.323Z,3.03
2019-05-22T17:22:41.324Z,4.73
2019-05-22T17:24:48.736Z,5.50
2019-05-22T17:26:57.949Z,3.63
2019-05-22T17:29:05.409Z,3.07
2019-05-22T17:31:12.963Z,3.37
2019-05-22T17:33:20.057Z,5.20
2019-05-22T17:35:27.403Z,4.50
2019-05-22T17:37:35.291Z,6.53
2019-05-22T17:39:43.878Z,5.37
2019-05-22T17:41:55.863Z,5.73
2019-05-22T17:44:02.181Z,18.87
2019-05-22T17:46:10.511Z,11.47
2019-05-22T17:48:21.339Z,3.73
2019-05-22T17:50:29.908Z,5.67
2019-05-22T17:52:38.340Z,6.23
2019-05-22T17:54:46.295Z,7.83
2019-05-22T17:56:53.253Z,5.80
2019-05-22T17:59:00.851Z,4.57
2019-05-22T18:01:08.763Z,7.00
2019-05-22T18:03:18.294Z,7.23
2019-05-22T18:05:29.268Z,7.70
2019-05-22T18:07:35.924Z,5.50
2019-05-22T18:09:42.398Z,7.00
2019-05-22T18:11:48.759Z,6.87
2019-05-22T18:14:04.083Z,6.10
2019-05-22T18:16:10.803Z,5.03
2019-05-22T18:18:17.964Z,6.10
2019-05-22T18:20:25.709Z,4.93
2019-05-22T18:22:33.247Z,3.87
2019-05-22T18:24:41.446Z,5.97
2019-05-22T18:26:48.606Z,8.50
2019-05-22T18:28:55.758Z,4.50
2019-05-22T18:31:03.842Z,4.73
2019-05-22T18:33:11.450Z,5.00
2019-05-22T18:35:19.259Z,5.63
2019-05-22T18:37:25.927Z,6.43
2019-05-22T18:39:34.631Z,5.33
2019-05-22T18:41:41.284Z,5.83
2019-05-22T18:43:48.188Z,8.53
2019-05-22T18:45:55.655Z,6.40
2019-05-22T18:48:02.746Z,4.97
2019-05-22T18:50:10.093Z,6.27
2019-05-22T18:52:18.624Z,5.10
2019-05-22T18:54:25.512Z,6.63
2019-05-22T18:56:32.266Z,5.83
2019-05-22T18:58:39.354Z,9.33
2019-05-22T19:00:45.837Z,8.00
2019-05-22T19:02:54.246Z,8.47
2019-05-22T19:05:01.739Z,11.27
2019-05-22T19:07:09.305Z,9.27
2019-05-22T19:09:17.164Z,6.23
2019-05-22T19:11:24.645Z,9.43
2019-05-22T19:13:32.271Z,5.83
2019-05-22T19:15:40.132Z,16.80
2019-05-22T19:17:47.153Z,8.37
2019-05-22T19:19:54.170Z,8.13
2019-05-22T19:22:01.045Z,9.50
2019-05-22T19:24:09.277Z,7.33
2019-05-22T19:26:16.480Z,7.13
2019-05-22T19:28:23.377Z,6.47
2019-05-22T19:30:30.360Z,7.50
2019-05-22T19:32:37.875Z,7.57
2019-05-22T19:34:46.689Z,5.17
2019-05-22T19:36:53.466Z,9.10
2019-05-22T19:39:00.884Z,5.17
2019-05-22T19:41:07.961Z,6.33
2019-05-22T19:43:15.587Z,6.73
2019-05-22T19:45:23.032Z,9.23
2019-05-22T19:47:30.013Z,10.40
2019-05-22T19:49:36.771Z,6.70
2019-05-22T19:51:45.499Z,8.33
2019-05-22T19:53:52.759Z,7.23
2019-05-22T19:56:00.159Z,6.83
2019-05-22T19:58:09.825Z,11.87
2019-05-22T20:00:17.145Z,10.20
2019-05-22T20:02:25.202Z,9.97
2019-05-22T20:04:32.862Z,8.43
2019-05-22T20:06:40.531Z,8.00
2019-05-22T20:08:48.184Z,10.57
2019-05-22T20:10:55.265Z,10.00
2019-05-22T20:13:02.941Z,10.87
2019-05-22T20:15:13.868Z,8.60
2019-05-22T20:17:20.413Z,12.60
2019-05-22T20:19:29.056Z,7.40
2019-05-22T20:21:36.164Z,12.27
2019-05-22T20:23:43.618Z,10.83
2019-05-22T20:25:51.121Z,9.80
2019-05-22T20:28:01.249Z,12.87
2019-05-22T20:30:12.231Z,12.83
2019-05-22T20:32:20.121Z,16.50
2019-05-22T20:34:27.328Z,12.70
2019-05-22T20:36:34.749Z,11.77
2019-05-22T20:38:41.164Z,11.23
2019-05-22T20:40:48.173Z,12.57
2019-05-22T20:42:54.780Z,13.27
2019-05-22T20:45:02.260Z,13.10
2019-05-22T20:47:11.477Z,11.50
2019-05-22T20:49:18.504Z,16.40
2019-05-22T20:51:26.519Z,11.73
2019-05-22T20:53:52.308Z,12.47
2019-05-22T20:55:45.729Z,11.30
2019-05-22T20:57:53.602Z,11.93
2019-05-22T21:00:01.357Z,13.23
2019-05-22T21:02:09.593Z,12.27
2019-05-22T21:04:20.117Z,13.83
2019-05-22T21:06:31.996Z,13.87
2019-05-22T21:08:40.671Z,14.57
2019-05-22T21:10:49.067Z,16.10
2019-05-22T21:12:57.590Z,17.13
2019-05-22T21:15:06.196Z,12.17
2019-05-22T21:17:12.594Z,12.47
2019-05-22T21:19:23.274Z,11.67
2019-05-22T21:21:29.101Z,13.27
2019-05-22T21:23:36.185Z,14.63
2019-05-22T21:25:43.032Z,11.67
2019-05-22T21:27:49.867Z,12.97
2019-05-22T21:29:57.639Z,11.73
2019-05-22T21:32:06.109Z,13.03
2019-05-22T21:34:13.193Z,11.43
2019-05-22T21:36:20.575Z,12.03
2019-05-22T21:38:30.203Z,11.97
2019-05-22T21:40:37.481Z,12.53
2019-05-22T21:42:46.126Z,11.27
2019-05-22T21:44:53.588Z,11.60
2019-05-22T21:47:02.580Z,14.10
2019-05-22T21:49:11.349Z,13.37
2019-05-22T21:51:18.627Z,11.00
2019-05-22T21:53:25.828Z,10.47
2019-05-22T21:55:34.383Z,11.33
2019-05-22T21:57:43.037Z,14.87
2019-05-22T21:59:51.589Z,13.80
2019-05-22T22:02:14.187Z,13.40
2019-05-22T22:04:23.773Z,12.27
2019-05-22T22:06:33.186Z,11.60
2019-05-22T22:08:39.972Z,12.17
2019-05-22T22:10:47.639Z,12.43
2019-05-22T22:12:56.452Z,13.67
2019-05-22T22:15:03.857Z,15.70
2019-05-22T22:17:12.994Z,12.57
2019-05-22T22:19:24.139Z,11.27
2019-05-22T22:21:31.045Z,13.83
2019-05-22T22:23:39.225Z,14.20
2019-05-22T22:25:46.481Z,15.83
2019-05-22T22:28:03.654Z,12.60
2019-05-22T22:30:20.611Z,14.43
2019-05-22T22:32:31.420Z,12.77
2019-05-22T22:34:45.022Z,16.30
2019-05-22T22:36:52.006Z,15.07
2019-05-22T22:38:59.814Z,14.73
2019-05-22T22:41:10.252Z,17.37
2019-05-22T22:43:17.578Z,17.50
2019-05-22T22:45:34.246Z,19.30
2019-05-22T22:47:42.577Z,17.53
2019-05-22T22:50:08.163Z,16.00
2019-05-22T22:52:16.694Z,18.50
2019-05-22T22:54:23.980Z,18.67
2019-05-22T22:56:31.346Z,18.33
2019-05-22T22:58:39.059Z,19.07
2019-05-22T23:00:50.434Z,18.63
2019-05-22T23:02:57.934Z,19.33
2019-05-22T23:05:06.857Z,16.60
2019-05-22T23:07:14.341Z,23.13
2019-05-22T23:09:21.638Z,20.43
2019-05-22T23:11:30.118Z,23.17
2019-05-22T23:13:38.740Z,20.20
2019-05-22T23:15:46.948Z,19.97
2019-05-22T23:17:53.627Z,18.17
2019-05-22T23:19:58.971Z,20.70
2019-05-22T23:22:04.988Z,20.77
2019-05-22T23:24:12.933Z,17.43
2019-05-22T23:26:21.656Z,20.27
2019-05-22T23:28:34.726Z,23.80
2019-05-22T23:30:37.408Z,21.50
2019-05-22T23:32:44.717Z,22.70
2019-05-22T23:34:51.285Z,20.67
2019-05-22T23:36:59.351Z,23.67
2019-05-22T23:39:15.982Z,22.23
2019-05-22T23:41:26.037Z,20.73
2019-05-22T23:43:33.693Z,24.27
2019-05-22T23:45:40.324Z,25.33
2019-05-22T23:48:07.850Z,21.57
2019-05-22T23:50:16.204Z,21.20
2019-05-22T23:52:23.641Z,18.13
2019-05-22T23:54:31.167Z,23.03
2019-05-22T23:56:39.667Z,21.60
2019-05-22T23:58:52.903Z,22.40
